Time;durP1;ratioP1;P1;durP2;ratioP2;P2;SDS_P1;SDS_P2;PMS_P1;PMS_P2;Temp;Humidity;BMP_temperature;BMP_pressure;BME280_temperature;BME280_humidity;BME280_pressure;Samples;Min_cycle;Max_cycle;Signal;HPM_P1;HPM_P2
2021/01/25 04:02:54;;;;;;;18.57;12.47;;;;;;;-0.35;100.00;100150.13;1778572;77;21580;-73
2021/01/25 04:05:22;;;;;;;17.42;12.43;;;;;;;-0.33;100.00;100151.30;1780977;79;21156;-72
2021/01/25 04:07:51;;;;;;;15.00;10.85;;;;;;;-0.32;100.00;100149.89;1784651;79;21152;-73
2021/01/25 04:10:19;;;;;;;18.42;13.03;;;;;;;-0.30;100.00;100144.67;1781851;79;22606;-74
2021/01/25 04:12:47;;;;;;;18.07;13.05;;;;;;;-0.29;100.00;100144.55;1777449;79;21201;-74
2021/01/25 04:15:16;;;;;;;16.93;12.10;;;;;;;-0.26;100.00;100148.16;1779222;79;21128;-75
2021/01/25 04:17:45;;;;;;;16.70;12.20;;;;;;;-0.23;100.00;100139.88;1785935;79;21099;-74
2021/01/25 04:20:14;;;;;;;20.45;14.47;;;;;;;-0.22;100.00;100132.57;1781572;79;21630;-74
2021/01/25 04:22:42;;;;;;;22.90;15.00;;;;;;;-0.20;100.00;100137.09;1784539;79;21202;-75
2021/01/25 04:25:11;;;;;;;20.50;13.00;;;;;;;-0.18;100.00;100132.22;1779883;79;21177;-73
2021/01/25 04:27:40;;;;;;;21.82;15.30;;;;;;;-0.15;100.00;100129.86;1782928;79;21065;-73
2021/01/25 04:30:10;;;;;;;22.15;15.00;;;;;;;-0.13;100.00;100135.70;1782984;78;21583;-71
2021/01/25 04:32:39;;;;;;;18.98;12.80;;;;;;;-0.13;100.00;100139.07;1784848;79;21056;-70
2021/01/25 04:35:10;;;;;;;18.02;13.18;;;;;;;-0.11;100.00;100141.53;1782083;78;21208;-71
2021/01/25 04:37:39;;;;;;;15.58;11.57;;;;;;;-0.07;100.00;100140.37;1782486;79;21598;-70
2021/01/25 04:40:12;;;;;;;19.15;12.95;;;;;;;-0.05;100.00;100139.30;1777587;79;21122;-70
2021/01/25 04:42:40;;;;;;;19.75;12.95;;;;;;;-0.04;100.00;100135.82;1780678;79;21033;-69
2021/01/25 04:45:10;;;;;;;16.48;11.78;;;;;;;0.01;100.00;100138.02;1785649;79;21053;-69
2021/01/25 04:47:46;;;;;;;16.65;10.45;;;;;;;0.04;100.00;100139.52;1778411;79;21214;-70
2021/01/25 04:50:18;;;;;;;18.17;12.55;;;;;;;0.07;100.00;100134.16;1782478;79;21013;-70
2021/01/25 04:52:47;;;;;;;19.20;13.87;;;;;;;0.08;100.00;100120.44;1779857;79;21133;-72
2021/01/25 04:55:16;;;;;;;21.35;13.25;;;;;;;0.07;100.00;100120.88;1781022;79;21207;-74
2021/01/25 04:57:44;;;;;;;18.12;12.18;;;;;;;0.08;100.00;100123.00;1779898;79;21635;-74
2021/01/25 05:00:16;;;;;;;19.92;14.47;;;;;;;0.10;100.00;100115.52;1782268;79;21385;-70
2021/01/25 05:02:44;;;;;;;20.92;14.33;;;;;;;0.09;100.00;100120.30;1778180;79;21080;-71
2021/01/25 05:05:13;;;;;;;24.15;14.58;;;;;;;0.11;100.00;100132.98;1775654;78;21209;-70
2021/01/25 05:07:41;;;;;;;25.45;14.38;;;;;;;0.14;100.00;100134.84;1782996;78;21120;-70
2021/01/25 05:10:11;;;;;;;28.05;18.00;;;;;;;0.18;100.00;100132.86;1771143;78;21179;-70
2021/01/25 05:12:51;;;;;;;20.95;14.80;;;;;;;0.19;100.00;100137.89;1775762;78;21220;-71
2021/01/25 05:15:30;;;;;;;28.87;18.07;;;;;;;0.21;100.00;100125.75;1782148;78;21234;-70
2021/01/25 05:18:04;;;;;;;24.82;15.60;;;;;;;0.22;100.00;100119.68;1775117;78;21226;-71
2021/01/25 05:20:33;;;;;;;24.98;15.80;;;;;;;0.26;100.00;100131.80;1770661;78;21020;-73
2021/01/25 05:23:06;;;;;;;21.07;15.15;;;;;;;0.27;100.00;100141.61;1776159;78;21534;-70
2021/01/25 05:25:35;;;;;;;18.73;12.90;;;;;;;0.27;100.00;100144.17;1741065;79;22352;-72
2021/01/25 05:28:16;;;;;;;20.65;13.72;;;;;;;0.30;100.00;100136.22;1755648;79;21180;-75
2021/01/25 05:30:44;;;;;;;21.23;13.83;;;;;;;0.33;100.00;100158.59;1759685;79;21113;-75
2021/01/25 05:33:12;;;;;;;22.02;13.80;;;;;;;0.36;100.00;100150.66;1755686;79;20996;-74
2021/01/25 05:35:42;;;;;;;21.07;13.95;;;;;;;0.40;100.00;100152.52;1759083;79;21121;-75
2021/01/25 05:38:10;;;;;;;20.75;13.98;;;;;;;0.40;100.00;100135.85;1758639;79;21293;-74
2021/01/25 05:40:39;;;;;;;23.07;16.00;;;;;;;0.40;100.00;100126.88;1758029;79;21228;-74
2021/01/25 05:43:14;;;;;;;21.57;14.75;;;;;;;0.38;100.00;100146.69;1752177;79;21211;-78
2021/01/25 05:45:42;;;;;;;21.87;14.18;;;;;;;0.36;100.00;100129.34;1754593;79;20989;-75
2021/01/25 05:48:14;;;;;;;21.07;15.40;;;;;;;0.34;100.00;100124.34;1745136;79;21160;-76
2021/01/25 05:50:43;;;;;;;17.40;13.05;;;;;;;0.33;100.00;100125.73;1756363;79;21221;-78
2021/01/25 05:53:13;;;;;;;18.25;12.53;;;;;;;0.32;100.00;100117.70;1754130;79;21160;-76
2021/01/25 05:55:43;;;;;;;20.70;13.45;;;;;;;0.33;100.00;100124.45;1757910;79;21020;-76
2021/01/25 05:58:12;;;;;;;22.80;14.68;;;;;;;0.37;100.00;100117.67;1749550;79;21054;-78
2021/01/25 06:00:41;;;;;;;20.45;14.63;;;;;;;0.39;100.00;100119.66;1756785;79;21148;-78
2021/01/25 06:03:10;;;;;;;23.02;17.27;;;;;;;0.42;100.00;100117.33;1741560;79;22497;-79
2021/01/25 06:05:40;;;;;;;23.22;16.55;;;;;;;0.49;100.00;100112.03;1771144;78;20962;-70
2021/01/25 06:08:50;;;;;;;30.25;20.77;;;;;;;0.68;100.00;100108.37;1771830;78;21492;-80
2021/01/25 06:11:32;;;;;;;23.12;14.58;;;;;;;0.95;100.00;100098.10;1772634;78;21128;-79
2021/01/25 06:14:05;;;;;;;21.80;15.13;;;;;;;1.12;100.00;100098.80;1719102;81;21144;-77
2021/01/25 06:16:34;;;;;;;22.60;15.20;;;;;;;1.09;100.00;100115.73;1780653;78;22137;-75
2021/01/25 06:19:08;;;;;;;22.42;15.32;;;;;;;1.03;100.00;100117.54;1773179;78;21097;-76
2021/01/25 06:21:39;;;;;;;22.45;15.00;;;;;;;0.99;100.00;100108.94;1775988;78;21140;-75
2021/01/25 06:24:09;;;;;;;21.97;13.13;;;;;;;0.94;100.00;100099.02;1744740;79;21662;-73
2021/01/25 06:26:38;;;;;;;20.30;13.78;;;;;;;0.88;100.00;100119.59;1760960;79;21173;-74
2021/01/25 06:29:08;;;;;;;20.10;14.73;;;;;;;0.81;100.00;100112.52;1765719;79;22280;-74
2021/01/25 06:31:38;;;;;;;21.50;13.70;;;;;;;0.75;100.00;100106.58;1760988;79;21136;-74
2021/01/25 06:34:09;;;;;;;21.10;14.93;;;;;;;0.66;100.00;100110.23;1763388;79;21539;-73
2021/01/25 06:36:40;;;;;;;21.35;14.38;;;;;;;0.60;100.00;100100.45;1759783;79;21206;-72
2021/01/25 06:39:08;;;;;;;19.57;14.05;;;;;;;0.54;100.00;100099.68;1754680;79;21145;-73
2021/01/25 06:41:41;;;;;;;23.25;13.98;;;;;;;0.50;100.00;100108.56;1763384;80;22269;-73
2021/01/25 06:44:11;;;;;;;26.07;15.75;;;;;;;0.50;100.00;100107.27;1761906;79;21046;-71
2021/01/25 06:46:40;;;;;;;32.38;20.90;;;;;;;0.48;100.00;100112.98;1752552;80;21590;-73
2021/01/25 06:49:09;;;;;;;26.40;16.25;;;;;;;0.46;100.00;100107.98;1762391;79;21088;-73
2021/01/25 06:51:41;;;;;;;23.40;15.40;;;;;;;0.47;100.00;100110.08;1762961;80;21480;-74
2021/01/25 06:54:11;;;;;;;27.87;16.80;;;;;;;0.46;100.00;100113.11;1755711;79;21215;-74
2021/01/25 06:56:45;;;;;;;23.20;14.03;;;;;;;0.47;100.00;100115.20;1751727;79;21204;-76
2021/01/25 06:59:13;;;;;;;24.57;14.47;;;;;;;0.48;100.00;100099.69;1763453;79;21135;-75
2021/01/25 07:01:42;;;;;;;24.00;15.30;;;;;;;0.52;100.00;100100.73;1702312;81;21129;-76
2021/01/25 07:04:14;;;;;;;22.90;15.03;;;;;;;0.54;100.00;100091.98;1741581;79;21229;-75
2021/01/25 07:06:50;;;;;;;27.67;16.12;;;;;;;0.60;100.00;100097.89;1739120;81;21210;-75
2021/01/25 07:09:32;;;;;;;23.52;15.53;;;;;;;0.66;100.00;100096.12;1734517;81;21149;-72
2021/01/25 07:12:02;;;;;;;25.92;16.65;;;;;;;0.72;100.00;100095.65;1739476;81;21833;-74
2021/01/25 07:14:32;;;;;;;26.82;17.25;;;;;;;0.80;100.00;100107.05;1743263;80;21129;-75
2021/01/25 07:17:00;;;;;;;27.13;16.70;;;;;;;0.86;100.00;100096.27;1746480;80;21132;-74
2021/01/25 07:19:30;;;;;;;21.45;15.13;;;;;;;0.95;100.00;100093.78;1739700;80;21214;-70
2021/01/25 07:21:58;;;;;;;24.12;14.65;;;;;;;1.11;100.00;100102.80;1734915;81;21240;-73
2021/01/25 07:24:27;;;;;;;21.68;13.98;;;;;;;1.25;100.00;100102.48;1737844;80;21195;-73
2021/01/25 07:26:58;;;;;;;22.50;13.50;;;;;;;1.41;100.00;100107.16;1737653;80;21606;-77
2021/01/25 07:29:27;;;;;;;25.12;14.15;;;;;;;1.52;100.00;100105.78;1735746;80;21551;-70
2021/01/25 07:31:56;;;;;;;21.48;13.58;;;;;;;1.61;100.00;100104.20;1739172;80;22812;-75
2021/01/25 07:34:29;;;;;;;24.15;14.90;;;;;;;1.68;100.00;100095.84;1742087;80;21074;-75
2021/01/25 07:36:56;;;;;;;22.15;14.23;;;;;;;1.69;100.00;100101.79;1733798;80;21205;-74
2021/01/25 07:39:25;;;;;;;27.25;14.05;;;;;;;1.67;100.00;100094.22;1730745;80;21165;-72
2021/01/25 07:41:53;;;;;;;26.65;16.35;;;;;;;1.68;100.00;100094.55;1729381;80;21884;-73
2021/01/25 07:44:21;;;;;;;26.20;15.83;;;;;;;1.74;100.00;100093.20;1731106;80;21216;-74
2021/01/25 07:46:51;;;;;;;19.60;12.75;;;;;;;1.79;100.00;100092.37;1732717;81;21412;-75
2021/01/25 07:49:28;;;;;;;20.57;13.28;;;;;;;1.85;100.00;100098.25;1732282;81;21195;-69
2021/01/25 07:51:56;;;;;;;24.72;16.55;;;;;;;1.92;100.00;100101.12;1731081;80;21180;-76
2021/01/25 07:54:29;;;;;;;23.95;14.63;;;;;;;2.02;100.00;100104.54;1728993;82;21147;-74
2021/01/25 07:56:59;;;;;;;23.02;14.60;;;;;;;2.12;100.00;100110.52;1730691;80;21387;-76
2021/01/25 07:59:34;;;;;;;25.43;15.48;;;;;;;2.20;100.00;100108.58;1729538;81;21235;-74
2021/01/25 08:02:06;;;;;;;25.45;15.55;;;;;;;2.26;100.00;100099.50;1725186;80;21134;-77
2021/01/25 08:04:35;;;;;;;;;;;;;;;2.31;100.00;100105.05;1719080;79;21169;-78
2021/01/25 08:07:03;;;;;;;28.90;15.48;;;;;;;2.31;100.00;100107.63;1758549;79;20326;-71
2021/01/25 08:09:37;;;;;;;24.80;15.53;;;;;;;2.31;100.00;100114.05;1749113;79;22810;-74
2021/01/25 08:12:02;;;;;;;20.95;14.43;;;;;;;2.32;100.00;100111.37;1756992;79;21641;-75
2021/01/25 08:14:36;;;;;;;22.80;14.40;;;;;;;2.36;100.00;100110.15;1746841;79;21547;-75
2021/01/25 08:17:11;;;;;;;17.85;12.35;;;;;;;2.39;100.00;100114.23;1755697;79;21211;-74
2021/01/25 08:19:47;;;;;;;21.05;13.85;;;;;;;2.42;100.00;100110.08;1754819;80;21657;-74
2021/01/25 08:22:20;;;;;;;26.55;15.83;;;;;;;2.48;100.00;100108.27;1760294;79;21383;-75
2021/01/25 08:24:56;;;;;;;26.80;14.58;;;;;;;2.58;100.00;100095.42;1752844;79;21204;-74
2021/01/25 08:27:24;;;;;;;18.77;13.45;;;;;;;2.71;100.00;100104.14;1754727;79;21203;-74
2021/01/25 08:30:11;;;;;;;21.12;13.65;;;;;;;2.84;100.00;100095.66;1755534;79;21223;-75
2021/01/25 08:32:47;;;;;;;25.43;14.18;;;;;;;3.00;100.00;100095.92;1753562;79;21216;-74
2021/01/25 08:35:38;;;;;;;22.00;14.65;;;;;;;3.21;100.00;100088.00;1751544;80;21164;-78
2021/01/25 08:38:12;;;;;;;18.05;11.22;;;;;;;3.48;100.00;100087.23;1753591;80;22463;-76
2021/01/25 08:40:50;;;;;;;21.20;13.93;;;;;;;3.94;100.00;100082.98;1808960;78;23381;-78
2021/01/25 08:43:23;;;;;;;16.60;11.95;;;;;;;4.20;100.00;100074.53;1731436;82;21010;-71
2021/01/25 08:45:52;;;;;;;18.45;12.05;;;;;;;4.66;100.00;100081.27;1745720;79;21200;-72
2021/01/25 08:48:31;;;;;;;18.35;13.22;;;;;;;5.27;100.00;100077.00;1729708;82;21009;-74
2021/01/25 08:51:21;;;;;;;19.75;13.53;;;;;;;5.78;100.00;100076.58;1745389;79;21077;-70
2021/01/25 08:53:52;;;;;;;19.03;12.53;;;;;;;6.26;100.00;100080.31;1704110;82;21078;-73
2021/01/25 08:56:20;;;;;;;19.87;12.77;;;;;;;6.68;100.00;100075.48;1732383;80;21221;-72
2021/01/25 08:58:48;;;;;;;16.23;10.67;;;;;;;6.99;100.00;100085.50;1735479;81;21535;-72
2021/01/25 09:01:28;;;;;;;16.57;12.37;;;;;;;7.23;100.00;100076.86;1740044;79;21583;-73
2021/01/25 09:03:58;;;;;;;16.07;11.20;;;;;;;7.32;100.00;100073.79;1744622;81;21074;-73
2021/01/25 09:06:27;;;;;;;18.63;11.67;;;;;;;7.17;100.00;100067.67;1739121;79;21123;-70
2021/01/25 09:08:55;;;;;;;18.23;12.60;;;;;;;6.92;100.00;100075.47;1757118;81;21346;-72
2021/01/25 09:11:24;;;;;;;17.60;12.53;;;;;;;6.65;100.00;100071.44;1731563;82;22318;-71
2021/01/25 09:13:54;;;;;;;20.37;12.20;;;;;;;6.56;100.00;100069.83;1727207;82;21258;-74
2021/01/25 09:16:22;;;;;;;15.53;10.83;;;;;;;6.56;100.00;100064.16;1728789;82;21406;-69
2021/01/25 09:18:50;;;;;;;16.03;11.03;;;;;;;6.72;100.00;100070.30;1738645;79;21440;-70
2021/01/25 09:21:19;;;;;;;16.90;11.63;;;;;;;6.93;100.00;100064.15;1717449;82;21375;-73
2021/01/25 09:23:47;;;;;;;16.43;11.40;;;;;;;7.14;100.00;100060.22;1729472;82;21579;-72
2021/01/25 09:26:15;;;;;;;16.77;11.57;;;;;;;7.38;100.00;100065.33;1721478;82;21402;-71
2021/01/25 09:28:44;;;;;;;29.93;25.33;;;;;;;7.68;100.00;100068.14;1720687;82;21368;-74
2021/01/25 09:31:14;;;;;;;16.50;12.17;;;;;;;7.96;100.00;100068.52;1730743;82;21893;-72
2021/01/25 09:33:42;;;;;;;14.97;10.90;;;;;;;8.17;100.00;100070.00;1729176;82;22003;-72
2021/01/25 09:36:10;;;;;;;14.40;11.37;;;;;;;8.20;100.00;100057.17;1724818;82;21432;-73
2021/01/25 09:38:39;;;;;;;13.90;10.57;;;;;;;8.20;100.00;100051.98;1725848;82;21240;-72
2021/01/25 09:41:07;;;;;;;17.93;11.30;;;;;;;8.08;100.00;100052.06;1724628;82;21135;-73
2021/01/25 09:43:35;;;;;;;17.07;11.83;;;;;;;8.14;100.00;100055.25;1722865;81;21239;-73
2021/01/25 09:46:04;;;;;;;15.57;10.97;;;;;;;8.29;100.00;100049.63;1729470;81;21343;-74
2021/01/25 09:48:33;;;;;;;14.47;11.20;;;;;;;8.39;100.00;100045.05;1723939;82;21500;-73
2021/01/25 09:51:02;;;;;;;17.23;11.53;;;;;;;8.37;100.00;100036.64;1733267;80;21285;-73
2021/01/25 09:53:31;;;;;;;15.67;11.67;;;;;;;8.38;100.00;100038.75;1751493;81;21426;-73
2021/01/25 09:55:59;;;;;;;17.87;11.70;;;;;;;8.32;100.00;100035.00;1752275;81;21981;-73
2021/01/25 09:58:28;;;;;;;14.27;9.90;;;;;;;8.16;100.00;100037.73;1718272;82;21802;-73
2021/01/25 10:00:56;;;;;;;19.03;11.83;;;;;;;8.16;100.00;100044.22;1778382;79;21855;-74
2021/01/25 10:03:24;;;;;;;17.70;11.97;;;;;;;8.08;100.00;100026.91;1778655;79;21330;-72
2021/01/25 10:05:53;;;;;;;15.47;11.30;;;;;;;8.01;100.00;100029.38;1779332;79;21377;-73
2021/01/25 10:08:23;;;;;;;20.67;11.60;;;;;;;8.12;100.00;100030.77;1724732;83;21332;-72
2021/01/25 10:10:51;;;;;;;16.67;11.30;;;;;;;8.16;100.00;100029.44;1744233;81;21466;-72
2021/01/25 10:13:20;;;;;;;17.80;11.80;;;;;;;8.12;100.00;100029.47;1783481;79;21438;-73
2021/01/25 10:15:48;;;;;;;17.73;13.10;;;;;;;7.98;100.00;100019.33;1739271;80;21314;-72
2021/01/25 10:18:18;;;;;;;17.87;12.30;;;;;;;7.86;100.00;100027.69;1726204;82;21417;-72
2021/01/25 10:20:47;;;;;;;20.97;13.63;;;;;;;7.81;100.00;100019.13;1787380;79;21224;-72
2021/01/25 10:23:15;;;;;;;19.83;11.43;;;;;;;7.76;100.00;100011.83;1778838;79;21328;-73
2021/01/25 10:25:44;;;;;;;19.80;13.53;;;;;;;7.61;100.00;100016.61;1785063;79;21430;-73
2021/01/25 10:28:12;;;;;;;16.23;11.93;;;;;;;7.29;100.00;100018.38;1731446;80;21418;-72
2021/01/25 10:30:40;;;;;;;17.47;11.57;;;;;;;7.18;100.00;100013.05;1748273;81;21303;-72
2021/01/25 10:33:09;;;;;;;17.07;11.30;;;;;;;7.22;100.00;99999.27;1755655;81;21180;-71
2021/01/25 10:35:37;;;;;;;15.60;10.90;;;;;;;7.32;100.00;99998.59;1748005;80;21172;-71
2021/01/25 10:38:06;;;;;;;18.20;12.03;;;;;;;7.41;100.00;99998.06;1726336;82;22648;-71
2021/01/25 10:40:34;;;;;;;17.63;12.03;;;;;;;7.46;100.00;99988.82;1790804;79;21376;-72
2021/01/25 10:43:03;;;;;;;16.83;11.47;;;;;;;7.51;100.00;99989.11;1790331;79;21418;-71
2021/01/25 10:45:32;;;;;;;14.50;10.67;;;;;;;7.53;100.00;99987.14;1794255;79;21234;-71
2021/01/25 10:48:00;;;;;;;15.30;10.83;;;;;;;7.53;100.00;99980.66;1787959;79;21348;-73
2021/01/25 10:50:29;;;;;;;19.00;11.20;;;;;;;7.46;100.00;99984.09;1784713;79;22585;-76
2021/01/25 10:52:58;;;;;;;16.50;11.73;;;;;;;7.50;100.00;99973.23;1737806;80;21109;-74
2021/01/25 10:55:28;;;;;;;17.20;12.57;;;;;;;7.76;100.00;99960.42;1721829;82;21242;-74
2021/01/25 10:57:56;;;;;;;15.20;9.90;;;;;;;8.01;100.00;99965.78;1783292;79;21171;-76
2021/01/25 11:00:26;;;;;;;14.73;11.50;;;;;;;8.28;100.00;99958.44;1782801;79;21218;-75
2021/01/25 11:02:55;;;;;;;17.40;11.37;;;;;;;8.21;100.00;99964.81;1791021;79;21324;-76
2021/01/25 11:05:27;;;;;;;14.83;10.77;;;;;;;8.17;100.00;99964.04;1723912;83;21430;-72
2021/01/25 11:07:56;;;;;;;18.02;11.63;;;;;;;8.25;100.00;99966.07;1744235;80;21900;-76
2021/01/25 11:10:26;;;;;;;15.83;10.33;;;;;;;8.41;100.00;99961.75;1757354;81;21554;-77
2021/01/25 11:12:55;;;;;;;15.37;9.90;;;;;;;8.50;100.00;99955.52;1721336;82;21464;-76
2021/01/25 11:15:24;;;;;;;15.47;10.00;;;;;;;8.51;100.00;99950.13;1723857;82;21449;-72
2021/01/25 11:17:53;;;;;;;14.70;10.43;;;;;;;8.43;100.00;99945.02;1742873;81;21096;-75
2021/01/25 11:20:22;;;;;;;17.50;10.87;;;;;;;8.27;100.00;99938.66;1758176;81;21334;-78
2021/01/25 11:22:50;;;;;;;16.87;10.50;;;;;;;8.19;100.00;99931.73;1725288;82;21262;-76
2021/01/25 11:25:18;;;;;;;17.30;12.40;;;;;;;8.13;100.00;99934.22;1723405;80;21346;-72
2021/01/25 11:27:47;;;;;;;29.67;25.73;;;;;;;7.91;100.00;99938.44;1785010;79;21499;-78
2021/01/25 11:30:16;;;;;;;17.43;12.10;;;;;;;7.67;100.00;99931.63;1731100;80;21722;-74
2021/01/25 11:32:44;;;;;;;16.27;10.57;;;;;;;7.51;100.00;99937.73;1754244;81;21212;-72
2021/01/25 11:35:14;;;;;;;974.80;547.67;;;;;;;7.38;100.00;99942.16;1752661;81;21253;-70
2021/01/25 11:37:42;;;;;;;67.33;37.20;;;;;;;7.45;100.00;99931.42;1777000;79;21224;-71
2021/01/25 11:40:11;;;;;;;17.80;11.47;;;;;;;7.74;100.00;99925.59;1736936;80;22735;-72
2021/01/25 11:42:39;;;;;;;18.00;11.40;;;;;;;8.04;100.00;99917.91;1733758;82;21714;-73
2021/01/25 11:45:09;;;;;;;17.17;12.63;;;;;;;8.25;100.00;99923.72;1741321;80;21418;-75
2021/01/25 11:47:38;;;;;;;16.43;11.47;;;;;;;8.47;100.00;99924.70;1732105;81;21292;-75
2021/01/25 11:50:08;;;;;;;37.83;22.53;;;;;;;8.65;100.00;99925.66;1744254;81;21495;-73
2021/01/25 11:52:36;;;;;;;28.13;17.90;;;;;;;8.59;100.00;99925.06;1782262;79;22102;-73
2021/01/25 11:55:06;;;;;;;119.30;85.73;;;;;;;8.46;100.00;99926.48;1790072;79;21239;-71
2021/01/25 11:57:35;;;;;;;54.53;48.73;;;;;;;8.46;100.00;99927.78;1787836;79;21636;-70
2021/01/25 12:00:06;;;;;;;19.27;14.73;;;;;;;8.46;100.00;99929.58;1729492;82;21399;-73
2021/01/25 12:02:36;;;;;;;33.57;28.60;;;;;;;8.50;100.00;99926.45;1793485;79;21341;-71
2021/01/25 12:05:06;;;;;;;546.10;413.57;;;;;;;8.55;100.00;99929.00;1787027;79;22461;-73
2021/01/25 12:07:35;;;;;;;32.37;26.87;;;;;;;8.60;100.00;99924.07;1792027;79;21235;-70
2021/01/25 12:10:06;;;;;;;16.40;11.80;;;;;;;8.61;100.00;99921.81;1789932;79;21281;-70
2021/01/25 12:12:34;;;;;;;13.27;9.23;;;;;;;8.43;100.00;99924.23;1783765;79;21289;-72
2021/01/25 12:15:05;;;;;;;14.47;10.80;;;;;;;8.21;100.00;99921.97;1783611;79;21214;-72
2021/01/25 12:17:35;;;;;;;19.47;13.43;;;;;;;7.98;100.00;99925.89;1730372;82;21354;-71
2021/01/25 12:20:21;;;;;;;42.60;38.97;;;;;;;7.90;100.00;99932.44;1788423;79;21181;-70
2021/01/25 12:22:50;;;;;;;20.40;14.77;;;;;;;7.85;100.00;99926.98;1790517;79;21242;-71
2021/01/25 12:25:19;;;;;;;16.27;10.00;;;;;;;7.76;100.00;99926.20;1786051;79;21779;-70
2021/01/25 12:27:49;;;;;;;17.93;11.33;;;;;;;7.65;100.00;99920.61;1785999;79;21152;-70
2021/01/25 12:30:19;;;;;;;19.02;14.20;;;;;;;7.59;100.00;99912.23;1787237;79;21350;-70
2021/01/25 12:32:47;;;;;;;21.97;15.57;;;;;;;7.54;100.00;99912.27;1790084;79;21030;-69
2021/01/25 12:35:18;;;;;;;21.13;15.30;;;;;;;7.48;100.00;99919.42;1787460;79;21244;-69
2021/01/25 12:37:50;;;;;;;36.88;29.57;;;;;;;7.43;100.00;99917.84;1787700;79;22012;-71
2021/01/25 12:40:18;;;;;;;24.60;14.60;;;;;;;7.36;100.00;99905.73;1786583;79;21136;-71
2021/01/25 12:42:46;;;;;;;18.03;12.43;;;;;;;7.28;100.00;99906.09;1789590;79;22171;-72
2021/01/25 12:45:15;;;;;;;19.30;12.07;;;;;;;7.20;100.00;99902.73;1787622;79;21302;-70
2021/01/25 12:47:43;;;;;;;19.90;12.57;;;;;;;7.12;100.00;99906.63;1788018;79;21776;-73
2021/01/25 12:50:12;;;;;;;18.20;12.00;;;;;;;7.05;100.00;99911.22;1789068;79;21348;-70
2021/01/25 12:52:40;;;;;;;17.73;12.20;;;;;;;7.02;100.00;99915.92;1789896;79;21330;-72
2021/01/25 12:55:09;;;;;;;28.37;18.57;;;;;;;6.94;100.00;99918.06;1788577;79;22626;-69
2021/01/25 12:57:39;;;;;;;35.37;26.97;;;;;;;6.86;100.00;99914.20;1786105;79;21332;-70
2021/01/25 13:00:11;;;;;;;51.63;46.63;;;;;;;6.80;100.00;99929.11;1785980;79;21195;-71
2021/01/25 13:02:40;;;;;;;22.57;15.33;;;;;;;6.81;100.00;99922.95;1782326;79;21286;-70
2021/01/25 13:05:09;;;;;;;24.90;14.57;;;;;;;6.85;100.00;99922.13;1782343;79;21456;-71
2021/01/25 13:07:38;;;;;;;28.87;19.57;;;;;;;6.84;100.00;99922.62;1725554;82;22120;-70
2021/01/25 13:10:10;;;;;;;18.65;12.70;;;;;;;6.78;100.00;99915.50;1728531;82;21298;-70
2021/01/25 13:12:39;;;;;;;21.50;12.80;;;;;;;6.67;100.00;99911.52;1742859;81;21216;-70
2021/01/25 13:15:31;;;;;;;22.03;13.33;;;;;;;6.53;100.00;99918.66;1732509;81;21482;-70
2021/01/25 13:18:02;;;;;;;24.30;14.78;;;;;;;6.37;100.00;99923.38;1683433;83;21862;-69
2021/01/25 13:20:30;;;;;;;19.20;12.43;;;;;;;6.25;100.00;99920.32;1679965;83;21216;-68
2021/01/25 13:23:01;;;;;;;24.60;15.97;;;;;;;6.19;100.00;99930.51;1676257;83;21241;-69
2021/01/25 13:25:29;;;;;;;24.00;14.05;;;;;;;6.15;100.00;99929.22;1679827;83;21724;-69
2021/01/25 13:28:01;;;;;;;20.85;14.25;;;;;;;6.09;100.00;99928.88;1681426;83;21238;-69
2021/01/25 13:30:30;;;;;;;19.32;12.93;;;;;;;6.01;100.00;99923.70;1674553;83;21467;-70
2021/01/25 13:32:58;;;;;;;25.45;17.23;;;;;;;5.89;100.00;99937.90;1677182;83;21415;-73
2021/01/25 13:35:28;;;;;;;45.23;31.60;;;;;;;5.76;100.00;99916.88;1685231;83;21224;-69
2021/01/25 13:37:59;;;;;;;21.85;13.38;;;;;;;5.53;100.00;99912.78;1686285;84;21201;-70
2021/01/25 13:40:29;;;;;;;19.12;12.30;;;;;;;5.25;100.00;99916.11;1686849;84;21211;-72
2021/01/25 13:42:58;;;;;;;18.98;12.58;;;;;;;5.04;100.00;99917.34;1686951;84;22325;-70
2021/01/25 13:45:33;;;;;;;20.17;14.28;;;;;;;4.91;100.00;99912.27;1687046;84;22556;-69
2021/01/25 13:48:05;;;;;;;22.07;13.98;;;;;;;4.81;100.00;99904.63;1684536;84;21092;-70
2021/01/25 13:50:35;;;;;;;25.37;15.95;;;;;;;4.73;100.00;99904.10;1687015;83;21140;-70
2021/01/25 13:53:05;;;;;;;27.00;16.77;;;;;;;4.67;100.00;99907.80;1683064;84;21239;-70
2021/01/25 13:55:33;;;;;;;149.47;74.27;;;;;;;4.61;100.00;99911.79;1687023;83;21112;-69
2021/01/25 13:58:03;;;;;;;82.78;41.80;;;;;;;4.55;100.00;99913.70;1686722;84;21369;-70
2021/01/25 14:00:33;;;;;;;265.65;132.67;;;;;;;4.49;100.00;99913.02;1686087;84;21621;-70
2021/01/25 14:03:04;;;;;;;32.55;20.30;;;;;;;4.42;100.00;99910.22;1686675;84;22243;-71
2021/01/25 14:05:33;;;;;;;24.00;13.75;;;;;;;4.32;100.00;99916.79;1685816;84;21172;-72
2021/01/25 14:08:02;;;;;;;26.68;17.12;;;;;;;4.22;100.00;99911.39;1685443;84;21550;-70
2021/01/25 14:10:30;;;;;;;21.45;14.28;;;;;;;4.13;100.00;99908.75;1686745;84;22684;-70
2021/01/25 14:13:00;;;;;;;23.70;15.68;;;;;;;4.05;100.00;99909.14;1686109;84;21227;-70
2021/01/25 14:15:28;;;;;;;24.98;15.00;;;;;;;3.94;100.00;99914.08;1687125;84;21239;-70
2021/01/25 14:17:56;;;;;;;28.45;15.58;;;;;;;3.83;100.00;99917.69;1677870;84;21222;-71
2021/01/25 14:20:25;;;;;;;28.90;17.85;;;;;;;3.74;100.00;99921.61;1656733;84;21204;-72
2021/01/25 14:22:54;;;;;;;34.90;17.77;;;;;;;3.69;100.00;99925.92;1656044;84;21227;-70
2021/01/25 14:25:24;;;;;;;27.17;16.80;;;;;;;3.64;100.00;99917.84;1637444;85;21172;-69
2021/01/25 14:27:55;;;;;;;27.77;16.12;;;;;;;3.57;100.00;99916.80;1678529;83;21591;-71
2021/01/25 14:30:25;;;;;;;22.60;14.20;;;;;;;3.50;100.00;99924.29;1673465;84;21049;-71
2021/01/25 14:32:53;;;;;;;27.98;17.12;;;;;;;3.44;100.00;99910.69;1672632;84;21261;-70
2021/01/25 14:35:23;;;;;;;27.02;16.80;;;;;;;3.38;100.00;99917.73;1667620;84;21305;-71
2021/01/25 14:37:52;;;;;;;22.62;12.95;;;;;;;3.28;100.00;99917.77;1669522;85;21175;-70
2021/01/25 14:40:22;;;;;;;20.70;12.43;;;;;;;3.17;100.00;99925.20;1669287;84;21231;-71
2021/01/25 14:42:51;;;;;;;21.10;13.00;;;;;;;3.06;100.00;99920.73;1668913;84;21064;-69
2021/01/25 14:45:26;;;;;;;23.25;14.10;;;;;;;2.93;100.00;99919.30;1670160;84;21234;-69
2021/01/25 14:47:54;;;;;;;19.07;11.60;;;;;;;2.83;100.00;99922.38;1672952;84;21223;-71
2021/01/25 14:50:23;;;;;;;25.88;15.05;;;;;;;2.74;100.00;99923.23;1668971;84;21256;-71
2021/01/25 14:52:52;;;;;;;30.60;18.92;;;;;;;2.64;100.00;99919.39;1670398;84;21562;-71
2021/01/25 14:55:22;;;;;;;29.07;16.82;;;;;;;2.54;100.00;99913.48;1666893;84;21159;-69
2021/01/25 14:57:51;;;;;;;23.67;14.15;;;;;;;2.46;100.00;99909.48;1672089;84;21084;-69
2021/01/25 15:00:20;;;;;;;25.72;16.20;;;;;;;2.39;100.00;99911.82;1668083;84;21224;-69
2021/01/25 15:02:49;;;;;;;28.27;16.23;;;;;;;2.33;100.00;99922.65;1668616;84;21239;-69
2021/01/25 15:05:20;;;;;;;26.10;15.55;;;;;;;2.29;100.00;99923.07;1669763;84;21207;-70
2021/01/25 15:07:48;;;;;;;24.75;14.83;;;;;;;2.25;100.00;99924.30;1670237;84;20974;-71
2021/01/25 15:10:21;;;;;;;24.43;15.08;;;;;;;2.23;100.00;99927.47;1668626;84;21654;-69
2021/01/25 15:12:50;;;;;;;24.47;15.55;;;;;;;2.25;100.00;99932.02;1672306;84;21384;-70
2021/01/25 15:15:21;;;;;;;27.37;16.52;;;;;;;2.26;100.00;99929.77;1669552;84;21226;-69
2021/01/25 15:17:52;;;;;;;34.27;18.98;;;;;;;2.23;100.00;99927.47;1674816;84;21108;-70
2021/01/25 15:20:23;;;;;;;40.90;22.25;;;;;;;2.23;100.00;99927.47;1680106;84;21187;-72
2021/01/25 15:22:51;;;;;;;89.97;51.75;;;;;;;2.25;100.00;99937.16;1680230;84;21063;-70
2021/01/25 15:25:19;;;;;;;57.03;34.15;;;;;;;2.25;100.00;99934.10;1677990;84;21654;-69
2021/01/25 15:27:48;;;;;;;40.88;23.80;;;;;;;2.24;100.00;99928.63;1679679;84;21665;-70